sensor_id;sensor_type;location;lat;lon;timestamp;P1;durP1;ratioP1;P2;durP2;ratioP2
6348;SDS011;3207;42.648;23.406;2022-08-14T00:01:51;5.78;;;3.90;;
6348;SDS011;3207;42.648;23.406;2022-08-14T00:04:17;5.00;;;2.80;;
6348;SDS011;3207;42.648;23.406;2022-08-14T00:06:44;3.90;;;2.97;;
6348;SDS011;3207;42.648;23.406;2022-08-14T00:09:11;3.28;;;2.90;;
6348;SDS011;3207;42.648;23.406;2022-08-14T00:11:37;4.20;;;3.55;;
6348;SDS011;3207;42.648;23.406;2022-08-14T00:14:05;4.20;;;3.80;;
6348;SDS011;3207;42.648;23.406;2022-08-14T00:16:32;4.28;;;3.63;;
6348;SDS011;3207;42.648;23.406;2022-08-14T00:18:58;6.07;;;3.70;;
6348;SDS011;3207;42.648;23.406;2022-08-14T00:21:25;4.38;;;3.97;;
6348;SDS011;3207;42.648;23.406;2022-08-14T00:23:52;4.07;;;2.97;;
6348;SDS011;3207;42.648;23.406;2022-08-14T00:26:20;3.58;;;3.28;;
6348;SDS011;3207;42.648;23.406;2022-08-14T00:28:47;3.25;;;2.95;;
6348;SDS011;3207;42.648;23.406;2022-08-14T00:31:15;3.90;;;3.47;;
6348;SDS011;3207;42.648;23.406;2022-08-14T00:33:42;4.35;;;3.42;;
6348;SDS011;3207;42.648;23.406;2022-08-14T00:36:08;3.30;;;3.00;;
6348;SDS011;3207;42.648;23.406;2022-08-14T00:38:35;3.40;;;3.10;;
6348;SDS011;3207;42.648;23.406;2022-08-14T00:41:02;6.75;;;3.55;;
6348;SDS011;3207;42.648;23.406;2022-08-14T00:43:31;4.80;;;3.90;;
6348;SDS011;3207;42.648;23.406;2022-08-14T00:46:00;4.72;;;3.40;;
6348;SDS011;3207;42.648;23.406;2022-08-14T00:48:29;7.78;;;3.97;;
6348;SDS011;3207;42.648;23.406;2022-08-14T00:50:56;4.00;;;3.70;;
6348;SDS011;3207;42.648;23.406;2022-08-14T00:53:22;4.72;;;3.97;;
6348;SDS011;3207;42.648;23.406;2022-08-14T00:55:49;4.97;;;4.40;;
6348;SDS011;3207;42.648;23.406;2022-08-14T00:58:19;4.00;;;3.65;;
6348;SDS011;3207;42.648;23.406;2022-08-14T01:00:55;6.45;;;3.85;;
6348;SDS011;3207;42.648;23.406;2022-08-14T01:03:22;6.90;;;4.55;;
6348;SDS011;3207;42.648;23.406;2022-08-14T01:05:52;6.05;;;3.97;;
6348;SDS011;3207;42.648;23.406;2022-08-14T01:08:20;3.78;;;3.40;;
6348;SDS011;3207;42.648;23.406;2022-08-14T01:10:50;3.70;;;3.28;;
6348;SDS011;3207;42.648;23.406;2022-08-14T01:13:19;3.75;;;3.42;;
6348;SDS011;3207;42.648;23.406;2022-08-14T01:15:48;3.95;;;2.78;;
6348;SDS011;3207;42.648;23.406;2022-08-14T01:18:18;3.45;;;2.95;;
6348;SDS011;3207;42.648;23.406;2022-08-14T01:21:07;5.68;;;3.20;;
6348;SDS011;3207;42.648;23.406;2022-08-14T01:23:37;4.10;;;3.78;;
6348;SDS011;3207;42.648;23.406;2022-08-14T01:26:05;3.60;;;3.30;;
6348;SDS011;3207;42.648;23.406;2022-08-14T01:28:32;4.93;;;3.67;;
6348;SDS011;3207;42.648;23.406;2022-08-14T01:31:02;4.03;;;3.63;;
6348;SDS011;3207;42.648;23.406;2022-08-14T01:33:33;5.90;;;3.40;;
6348;SDS011;3207;42.648;23.406;2022-08-14T01:36:07;3.42;;;3.13;;
6348;SDS011;3207;42.648;23.406;2022-08-14T01:38:36;4.15;;;3.22;;
6348;SDS011;3207;42.648;23.406;2022-08-14T01:41:05;4.13;;;3.17;;
6348;SDS011;3207;42.648;23.406;2022-08-14T01:43:41;3.67;;;3.38;;
6348;SDS011;3207;42.648;23.406;2022-08-14T01:46:09;3.53;;;3.22;;
6348;SDS011;3207;42.648;23.406;2022-08-14T01:48:36;3.72;;;3.42;;
6348;SDS011;3207;42.648;23.406;2022-08-14T01:51:08;5.15;;;3.75;;
6348;SDS011;3207;42.648;23.406;2022-08-14T01:53:37;5.05;;;3.00;;
6348;SDS011;3207;42.648;23.406;2022-08-14T01:56:05;3.83;;;3.53;;
6348;SDS011;3207;42.648;23.406;2022-08-14T01:58:32;3.60;;;3.30;;
6348;SDS011;3207;42.648;23.406;2022-08-14T02:00:59;4.07;;;3.15;;
6348;SDS011;3207;42.648;23.406;2022-08-14T02:03:29;3.42;;;3.13;;
6348;SDS011;3207;42.648;23.406;2022-08-14T02:06:00;3.50;;;3.20;;
6348;SDS011;3207;42.648;23.406;2022-08-14T02:08:28;3.22;;;2.90;;
6348;SDS011;3207;42.648;23.406;2022-08-14T02:10:56;3.50;;;3.20;;
6348;SDS011;3207;42.648;23.406;2022-08-14T02:13:43;3.40;;;3.10;;
6348;SDS011;3207;42.648;23.406;2022-08-14T02:16:11;3.33;;;3.03;;
6348;SDS011;3207;42.648;23.406;2022-08-14T02:18:40;3.03;;;2.83;;
6348;SDS011;3207;42.648;23.406;2022-08-14T02:21:07;3.10;;;2.80;;
6348;SDS011;3207;42.648;23.406;2022-08-14T02:23:37;3.15;;;2.55;;
6348;SDS011;3207;42.648;23.406;2022-08-14T02:26:13;3.25;;;2.95;;
6348;SDS011;3207;42.648;23.406;2022-08-14T02:28:41;2.90;;;2.60;;
6348;SDS011;3207;42.648;23.406;2022-08-14T02:31:08;3.45;;;2.88;;
6348;SDS011;3207;42.648;23.406;2022-08-14T02:33:35;4.15;;;3.08;;
6348;SDS011;3207;42.648;23.406;2022-08-14T02:36:02;3.22;;;3.03;;
6348;SDS011;3207;42.648;23.406;2022-08-14T02:38:29;3.78;;;3.47;;
6348;SDS011;3207;42.648;23.406;2022-08-14T02:40:56;2.75;;;2.55;;
6348;SDS011;3207;42.648;23.406;2022-08-14T02:43:24;3.58;;;3.28;;
6348;SDS011;3207;42.648;23.406;2022-08-14T02:45:54;3.38;;;3.08;;
6348;SDS011;3207;42.648;23.406;2022-08-14T02:48:20;3.70;;;2.67;;
6348;SDS011;3207;42.648;23.406;2022-08-14T02:50:47;3.00;;;2.78;;
6348;SDS011;3207;42.648;23.406;2022-08-14T02:53:14;3.53;;;3.22;;
6348;SDS011;3207;42.648;23.406;2022-08-14T02:55:42;6.63;;;3.10;;
6348;SDS011;3207;42.648;23.406;2022-08-14T02:58:08;4.20;;;3.00;;
6348;SDS011;3207;42.648;23.406;2022-08-14T03:00:36;4.65;;;3.08;;
6348;SDS011;3207;42.648;23.406;2022-08-14T03:03:03;3.20;;;2.92;;
6348;SDS011;3207;42.648;23.406;2022-08-14T03:05:33;2.80;;;2.60;;
6348;SDS011;3207;42.648;23.406;2022-08-14T03:08:03;3.65;;;3.08;;
6348;SDS011;3207;42.648;23.406;2022-08-14T03:10:31;3.05;;;2.75;;
6348;SDS011;3207;42.648;23.406;2022-08-14T03:12:58;3.30;;;3.10;;
6348;SDS011;3207;42.648;23.406;2022-08-14T03:15:28;3.58;;;3.28;;
6348;SDS011;3207;42.648;23.406;2022-08-14T03:17:57;2.88;;;2.58;;
6348;SDS011;3207;42.648;23.406;2022-08-14T03:20:25;2.97;;;2.53;;
6348;SDS011;3207;42.648;23.406;2022-08-14T03:22:52;2.78;;;2.58;;
6348;SDS011;3207;42.648;23.406;2022-08-14T03:25:20;3.42;;;3.13;;
6348;SDS011;3207;42.648;23.406;2022-08-14T03:27:47;3.25;;;2.97;;
6348;SDS011;3207;42.648;23.406;2022-08-14T03:30:13;3.50;;;3.20;;
6348;SDS011;3207;42.648;23.406;2022-08-14T03:32:40;3.35;;;3.05;;
6348;SDS011;3207;42.648;23.406;2022-08-14T03:35:09;2.92;;;2.60;;
6348;SDS011;3207;42.648;23.406;2022-08-14T03:37:36;4.47;;;3.20;;
6348;SDS011;3207;42.648;23.406;2022-08-14T03:40:03;3.65;;;3.17;;
6348;SDS011;3207;42.648;23.406;2022-08-14T03:42:30;3.15;;;2.90;;
6348;SDS011;3207;42.648;23.406;2022-08-14T03:44:59;3.15;;;2.95;;
6348;SDS011;3207;42.648;23.406;2022-08-14T03:47:25;4.45;;;3.00;;
6348;SDS011;3207;42.648;23.406;2022-08-14T03:49:52;3.65;;;3.35;;
6348;SDS011;3207;42.648;23.406;2022-08-14T03:52:21;3.83;;;3.40;;
6348;SDS011;3207;42.648;23.406;2022-08-14T03:54:48;3.88;;;3.03;;
6348;SDS011;3207;42.648;23.406;2022-08-14T03:57:14;4.13;;;3.35;;
6348;SDS011;3207;42.648;23.406;2022-08-14T03:59:41;5.63;;;3.50;;
6348;SDS011;3207;42.648;23.406;2022-08-14T04:02:07;3.90;;;3.60;;
6348;SDS011;3207;42.648;23.406;2022-08-14T04:04:34;5.70;;;4.68;;
6348;SDS011;3207;42.648;23.406;2022-08-14T04:07:02;5.35;;;4.50;;
6348;SDS011;3207;42.648;23.406;2022-08-14T04:09:30;5.07;;;4.63;;
6348;SDS011;3207;42.648;23.406;2022-08-14T04:11:56;5.03;;;4.55;;
6348;SDS011;3207;42.648;23.406;2022-08-14T04:14:23;4.88;;;4.47;;
6348;SDS011;3207;42.648;23.406;2022-08-14T04:16:50;4.82;;;4.38;;
6348;SDS011;3207;42.648;23.406;2022-08-14T04:19:17;5.28;;;4.40;;
6348;SDS011;3207;42.648;23.406;2022-08-14T04:21:47;5.00;;;4.60;;
6348;SDS011;3207;42.648;23.406;2022-08-14T04:24:15;4.85;;;4.30;;
6348;SDS011;3207;42.648;23.406;2022-08-14T04:26:43;5.88;;;5.25;;
6348;SDS011;3207;42.648;23.406;2022-08-14T04:29:10;6.88;;;4.63;;
6348;SDS011;3207;42.648;23.406;2022-08-14T04:31:38;5.40;;;4.70;;
6348;SDS011;3207;42.648;23.406;2022-08-14T04:34:05;5.25;;;4.72;;
6348;SDS011;3207;42.648;23.406;2022-08-14T04:36:31;5.28;;;4.45;;
6348;SDS011;3207;42.648;23.406;2022-08-14T04:39:18;6.60;;;5.45;;
6348;SDS011;3207;42.648;23.406;2022-08-14T04:42:04;6.93;;;4.70;;
6348;SDS011;3207;42.648;23.406;2022-08-14T04:44:56;6.90;;;4.90;;
6348;SDS011;3207;42.648;23.406;2022-08-14T04:47:23;5.60;;;5.10;;
6348;SDS011;3207;42.648;23.406;2022-08-14T04:50:07;5.55;;;5.05;;
6348;SDS011;3207;42.648;23.406;2022-08-14T04:52:34;6.82;;;5.18;;
6348;SDS011;3207;42.648;23.406;2022-08-14T04:55:00;6.22;;;5.63;;
6348;SDS011;3207;42.648;23.406;2022-08-14T04:57:30;5.68;;;5.18;;
6348;SDS011;3207;42.648;23.406;2022-08-14T04:59:58;6.97;;;5.47;;
6348;SDS011;3207;42.648;23.406;2022-08-14T05:02:25;8.80;;;5.50;;
6348;SDS011;3207;42.648;23.406;2022-08-14T05:04:52;6.28;;;5.68;;
6348;SDS011;3207;42.648;23.406;2022-08-14T05:07:18;6.13;;;5.47;;
6348;SDS011;3207;42.648;23.406;2022-08-14T05:09:45;6.72;;;5.28;;
6348;SDS011;3207;42.648;23.406;2022-08-14T05:12:11;6.15;;;5.55;;
6348;SDS011;3207;42.648;23.406;2022-08-14T05:14:39;5.70;;;5.18;;
6348;SDS011;3207;42.648;23.406;2022-08-14T05:17:06;6.32;;;5.68;;
6348;SDS011;3207;42.648;23.406;2022-08-14T05:19:32;5.45;;;5.05;;
6348;SDS011;3207;42.648;23.406;2022-08-14T05:21:59;8.40;;;4.97;;
6348;SDS011;3207;42.648;23.406;2022-08-14T05:24:27;6.32;;;5.03;;
6348;SDS011;3207;42.648;23.406;2022-08-14T05:26:53;5.38;;;4.80;;
6348;SDS011;3207;42.648;23.406;2022-08-14T05:29:20;5.47;;;4.97;;
6348;SDS011;3207;42.648;23.406;2022-08-14T05:31:48;5.22;;;4.80;;
6348;SDS011;3207;42.648;23.406;2022-08-14T05:34:15;4.70;;;4.30;;
6348;SDS011;3207;42.648;23.406;2022-08-14T05:36:42;5.47;;;4.97;;
6348;SDS011;3207;42.648;23.406;2022-08-14T05:39:08;6.10;;;5.35;;
6348;SDS011;3207;42.648;23.406;2022-08-14T05:41:35;5.68;;;5.13;;
6348;SDS011;3207;42.648;23.406;2022-08-14T05:44:02;5.43;;;4.82;;
6348;SDS011;3207;42.648;23.406;2022-08-14T05:46:29;5.90;;;5.40;;
6348;SDS011;3207;42.648;23.406;2022-08-14T05:48:57;5.53;;;5.03;;
6348;SDS011;3207;42.648;23.406;2022-08-14T05:51:24;4.25;;;3.85;;
6348;SDS011;3207;42.648;23.406;2022-08-14T05:53:52;6.03;;;5.43;;
6348;SDS011;3207;42.648;23.406;2022-08-14T05:56:18;5.40;;;4.90;;
6348;SDS011;3207;42.648;23.406;2022-08-14T05:58:45;8.35;;;7.63;;
6348;SDS011;3207;42.648;23.406;2022-08-14T06:01:12;5.18;;;4.68;;
6348;SDS011;3207;42.648;23.406;2022-08-14T06:03:38;6.22;;;4.18;;
6348;SDS011;3207;42.648;23.406;2022-08-14T06:06:06;5.05;;;3.83;;
6348;SDS011;3207;42.648;23.406;2022-08-14T06:08:33;4.25;;;3.85;;
6348;SDS011;3207;42.648;23.406;2022-08-14T06:11:01;5.65;;;5.07;;
6348;SDS011;3207;42.648;23.406;2022-08-14T06:13:30;5.57;;;4.75;;
6348;SDS011;3207;42.648;23.406;2022-08-14T06:15:57;6.43;;;5.35;;
6348;SDS011;3207;42.648;23.406;2022-08-14T06:18:24;6.05;;;5.50;;
6348;SDS011;3207;42.648;23.406;2022-08-14T06:20:51;5.55;;;4.97;;
6348;SDS011;3207;42.648;23.406;2022-08-14T06:23:19;5.53;;;5.00;;
6348;SDS011;3207;42.648;23.406;2022-08-14T06:25:46;5.18;;;4.70;;
6348;SDS011;3207;42.648;23.406;2022-08-14T06:28:16;4.63;;;4.22;;
6348;SDS011;3207;42.648;23.406;2022-08-14T06:30:43;4.63;;;4.22;;
6348;SDS011;3207;42.648;23.406;2022-08-14T06:33:10;4.20;;;3.90;;
6348;SDS011;3207;42.648;23.406;2022-08-14T06:35:37;4.50;;;4.10;;
6348;SDS011;3207;42.648;23.406;2022-08-14T06:38:04;4.53;;;3.80;;
6348;SDS011;3207;42.648;23.406;2022-08-14T06:40:33;5.57;;;4.07;;
6348;SDS011;3207;42.648;23.406;2022-08-14T06:43:01;5.50;;;4.80;;
6348;SDS011;3207;42.648;23.406;2022-08-14T06:45:29;5.55;;;4.95;;
6348;SDS011;3207;42.648;23.406;2022-08-14T06:47:55;5.00;;;4.32;;
6348;SDS011;3207;42.648;23.406;2022-08-14T06:50:23;4.45;;;4.15;;
6348;SDS011;3207;42.648;23.406;2022-08-14T06:52:51;4.53;;;4.13;;
6348;SDS011;3207;42.648;23.406;2022-08-14T06:55:17;4.25;;;3.85;;
6348;SDS011;3207;42.648;23.406;2022-08-14T06:57:46;4.15;;;3.75;;
6348;SDS011;3207;42.648;23.406;2022-08-14T07:00:15;4.07;;;3.78;;
6348;SDS011;3207;42.648;23.406;2022-08-14T07:02:43;3.50;;;3.30;;
6348;SDS011;3207;42.648;23.406;2022-08-14T07:05:28;4.25;;;3.70;;
6348;SDS011;3207;42.648;23.406;2022-08-14T07:08:22;4.35;;;4.05;;
6348;SDS011;3207;42.648;23.406;2022-08-14T07:10:53;3.92;;;3.63;;
6348;SDS011;3207;42.648;23.406;2022-08-14T07:13:23;4.18;;;3.78;;
6348;SDS011;3207;42.648;23.406;2022-08-14T07:15:51;4.32;;;3.92;;
6348;SDS011;3207;42.648;23.406;2022-08-14T07:18:19;4.75;;;4.28;;
6348;SDS011;3207;42.648;23.406;2022-08-14T07:20:47;4.25;;;3.80;;
6348;SDS011;3207;42.648;23.406;2022-08-14T07:23:15;3.67;;;3.40;;
6348;SDS011;3207;42.648;23.406;2022-08-14T07:25:42;4.50;;;4.10;;
6348;SDS011;3207;42.648;23.406;2022-08-14T07:28:09;4.97;;;3.83;;
6348;SDS011;3207;42.648;23.406;2022-08-14T07:30:39;3.45;;;3.25;;
6348;SDS011;3207;42.648;23.406;2022-08-14T07:33:06;5.53;;;4.25;;
6348;SDS011;3207;42.648;23.406;2022-08-14T07:35:34;3.53;;;3.33;;
6348;SDS011;3207;42.648;23.406;2022-08-14T07:38:02;4.60;;;4.13;;
6348;SDS011;3207;42.648;23.406;2022-08-14T07:40:29;4.72;;;4.32;;
6348;SDS011;3207;42.648;23.406;2022-08-14T07:42:55;4.93;;;4.53;;
6348;SDS011;3207;42.648;23.406;2022-08-14T07:45:22;5.07;;;4.20;;
6348;SDS011;3207;42.648;23.406;2022-08-14T07:47:50;5.25;;;4.28;;
6348;SDS011;3207;42.648;23.406;2022-08-14T07:50:18;4.57;;;4.28;;
6348;SDS011;3207;42.648;23.406;2022-08-14T07:52:45;6.07;;;4.72;;
6348;SDS011;3207;42.648;23.406;2022-08-14T07:55:14;7.10;;;3.97;;
6348;SDS011;3207;42.648;23.406;2022-08-14T07:57:42;4.90;;;4.50;;
6348;SDS011;3207;42.648;23.406;2022-08-14T08:00:12;4.18;;;3.75;;
6348;SDS011;3207;42.648;23.406;2022-08-14T08:02:41;5.03;;;4.50;;
6348;SDS011;3207;42.648;23.406;2022-08-14T08:05:11;4.60;;;4.30;;
6348;SDS011;3207;42.648;23.406;2022-08-14T08:07:39;5.15;;;4.50;;
6348;SDS011;3207;42.648;23.406;2022-08-14T08:10:08;3.90;;;3.60;;
6348;SDS011;3207;42.648;23.406;2022-08-14T08:12:53;5.00;;;3.88;;
6348;SDS011;3207;42.648;23.406;2022-08-14T08:15:21;4.70;;;4.30;;
6348;SDS011;3207;42.648;23.406;2022-08-14T08:17:48;4.78;;;4.25;;
6348;SDS011;3207;42.648;23.406;2022-08-14T08:20:17;4.38;;;4.07;;
6348;SDS011;3207;42.648;23.406;2022-08-14T08:22:45;4.35;;;3.67;;
6348;SDS011;3207;42.648;23.406;2022-08-14T08:25:12;5.70;;;4.28;;
6348;SDS011;3207;42.648;23.406;2022-08-14T08:27:38;4.13;;;3.75;;
6348;SDS011;3207;42.648;23.406;2022-08-14T08:30:07;4.50;;;3.70;;
6348;SDS011;3207;42.648;23.406;2022-08-14T08:32:38;4.10;;;3.70;;
6348;SDS011;3207;42.648;23.406;2022-08-14T08:35:08;4.55;;;4.25;;
6348;SDS011;3207;42.648;23.406;2022-08-14T08:37:37;5.35;;;4.05;;
6348;SDS011;3207;42.648;23.406;2022-08-14T08:40:04;4.35;;;4.05;;
6348;SDS011;3207;42.648;23.406;2022-08-14T08:42:31;4.97;;;4.60;;
6348;SDS011;3207;42.648;23.406;2022-08-14T08:44:59;4.70;;;4.30;;
6348;SDS011;3207;42.648;23.406;2022-08-14T08:47:36;5.03;;;4.53;;
6348;SDS011;3207;42.648;23.406;2022-08-14T08:50:13;4.00;;;3.70;;
6348;SDS011;3207;42.648;23.406;2022-08-14T08:55:15;5.45;;;5.05;;
6348;SDS011;3207;42.648;23.406;2022-08-14T08:57:52;5.20;;;4.80;;
6348;SDS011;3207;42.648;23.406;2022-08-14T09:00:19;6.57;;;4.85;;
6348;SDS011;3207;42.648;23.406;2022-08-14T09:02:51;6.47;;;4.55;;
6348;SDS011;3207;42.648;23.406;2022-08-14T09:05:23;5.13;;;4.72;;
6348;SDS011;3207;42.648;23.406;2022-08-14T09:07:52;5.80;;;5.30;;
6348;SDS011;3207;42.648;23.406;2022-08-14T09:10:18;5.60;;;5.10;;
6348;SDS011;3207;42.648;23.406;2022-08-14T09:12:45;5.18;;;4.65;;
6348;SDS011;3207;42.648;23.406;2022-08-14T09:15:12;5.15;;;4.65;;
6348;SDS011;3207;42.648;23.406;2022-08-14T09:17:40;4.80;;;4.32;;
6348;SDS011;3207;42.648;23.406;2022-08-14T09:20:07;6.57;;;5.63;;
6348;SDS011;3207;42.648;23.406;2022-08-14T09:22:34;4.82;;;4.53;;
6348;SDS011;3207;42.648;23.406;2022-08-14T09:25:03;5.18;;;4.78;;
6348;SDS011;3207;42.648;23.406;2022-08-14T09:27:30;5.80;;;5.30;;
6348;SDS011;3207;42.648;23.406;2022-08-14T09:29:57;4.72;;;4.43;;
6348;SDS011;3207;42.648;23.406;2022-08-14T09:32:26;5.10;;;4.70;;
6348;SDS011;3207;42.648;23.406;2022-08-14T09:35:03;5.10;;;4.70;;
6348;SDS011;3207;42.648;23.406;2022-08-14T09:37:39;5.30;;;4.90;;
6348;SDS011;3207;42.648;23.406;2022-08-14T09:40:20;5.20;;;4.70;;
6348;SDS011;3207;42.648;23.406;2022-08-14T09:43:02;5.80;;;5.35;;
6348;SDS011;3207;42.648;23.406;2022-08-14T09:45:35;4.75;;;4.45;;
6348;SDS011;3207;42.648;23.406;2022-08-14T09:48:13;5.38;;;4.97;;
6348;SDS011;3207;42.648;23.406;2022-08-14T09:50:43;5.30;;;4.90;;
6348;SDS011;3207;42.648;23.406;2022-08-14T09:53:11;4.75;;;4.38;;
6348;SDS011;3207;42.648;23.406;2022-08-14T09:55:44;5.30;;;4.90;;
6348;SDS011;3207;42.648;23.406;2022-08-14T09:58:33;5.03;;;4.63;;
6348;SDS011;3207;42.648;23.406;2022-08-14T10:01:08;5.88;;;5.40;;
6348;SDS011;3207;42.648;23.406;2022-08-14T10:03:37;4.88;;;4.47;;
6348;SDS011;3207;42.648;23.406;2022-08-14T10:06:12;5.43;;;4.93;;
6348;SDS011;3207;42.648;23.406;2022-08-14T10:08:43;6.07;;;4.72;;
6348;SDS011;3207;42.648;23.406;2022-08-14T10:11:13;5.60;;;5.20;;
6348;SDS011;3207;42.648;23.406;2022-08-14T10:13:43;5.47;;;5.03;;
6348;SDS011;3207;42.648;23.406;2022-08-14T10:16:10;6.10;;;5.60;;
6348;SDS011;3207;42.648;23.406;2022-08-14T10:18:38;5.47;;;4.90;;
6348;SDS011;3207;42.648;23.406;2022-08-14T10:21:07;5.97;;;5.35;;
6348;SDS011;3207;42.648;23.406;2022-08-14T10:23:38;6.07;;;5.35;;
6348;SDS011;3207;42.648;23.406;2022-08-14T10:26:07;5.85;;;5.45;;
6348;SDS011;3207;42.648;23.406;2022-08-14T10:28:41;6.65;;;6.05;;
6348;SDS011;3207;42.648;23.406;2022-08-14T10:31:18;6.30;;;5.80;;
6348;SDS011;3207;42.648;23.406;2022-08-14T10:34:02;6.63;;;6.03;;
6348;SDS011;3207;42.648;23.406;2022-08-14T10:36:31;6.47;;;5.88;;
6348;SDS011;3207;42.648;23.406;2022-08-14T10:39:00;6.28;;;5.68;;
6348;SDS011;3207;42.648;23.406;2022-08-14T10:41:35;6.03;;;5.47;;
6348;SDS011;3207;42.648;23.406;2022-08-14T10:44:10;6.20;;;5.70;;
6348;SDS011;3207;42.648;23.406;2022-08-14T10:46:42;5.65;;;5.13;;
6348;SDS011;3207;42.648;23.406;2022-08-14T10:49:18;5.40;;;5.00;;
6348;SDS011;3207;42.648;23.406;2022-08-14T10:51:58;5.55;;;5.13;;
6348;SDS011;3207;42.648;23.406;2022-08-14T10:54:29;6.15;;;5.57;;
6348;SDS011;3207;42.648;23.406;2022-08-14T10:56:57;6.55;;;5.97;;
6348;SDS011;3207;42.648;23.406;2022-08-14T10:59:41;5.95;;;5.47;;
6348;SDS011;3207;42.648;23.406;2022-08-14T11:02:20;6.20;;;5.70;;
6348;SDS011;3207;42.648;23.406;2022-08-14T11:04:57;6.97;;;6.38;;
6348;SDS011;3207;42.648;23.406;2022-08-14T11:07:25;6.60;;;6.10;;
6348;SDS011;3207;42.648;23.406;2022-08-14T11:09:52;6.25;;;5.65;;
6348;SDS011;3207;42.648;23.406;2022-08-14T11:12:21;6.85;;;6.35;;
6348;SDS011;3207;42.648;23.406;2022-08-14T11:14:53;6.47;;;5.95;;
6348;SDS011;3207;42.648;23.406;2022-08-14T11:17:21;6.93;;;5.63;;
6348;SDS011;3207;42.648;23.406;2022-08-14T11:19:50;5.88;;;5.38;;
6348;SDS011;3207;42.648;23.406;2022-08-14T11:22:20;6.07;;;5.43;;
6348;SDS011;3207;42.648;23.406;2022-08-14T11:24:51;6.00;;;5.50;;
6348;SDS011;3207;42.648;23.406;2022-08-14T11:27:20;6.25;;;5.75;;
6348;SDS011;3207;42.648;23.406;2022-08-14T11:29:49;5.90;;;5.45;;
6348;SDS011;3207;42.648;23.406;2022-08-14T11:32:18;5.78;;;5.38;;
6348;SDS011;3207;42.648;23.406;2022-08-14T11:34:45;6.35;;;5.43;;
6348;SDS011;3207;42.648;23.406;2022-08-14T11:37:12;6.68;;;6.07;;
6348;SDS011;3207;42.648;23.406;2022-08-14T11:39:39;5.70;;;5.30;;
6348;SDS011;3207;42.648;23.406;2022-08-14T11:42:06;6.70;;;6.10;;
6348;SDS011;3207;42.648;23.406;2022-08-14T11:44:43;5.68;;;5.28;;
6348;SDS011;3207;42.648;23.406;2022-08-14T11:47:10;5.45;;;5.05;;
6348;SDS011;3207;42.648;23.406;2022-08-14T11:49:44;6.05;;;5.65;;
6348;SDS011;3207;42.648;23.406;2022-08-14T11:52:12;7.22;;;6.53;;
6348;SDS011;3207;42.648;23.406;2022-08-14T11:54:39;6.13;;;5.32;;
6348;SDS011;3207;42.648;23.406;2022-08-14T11:57:12;5.47;;;5.07;;
6348;SDS011;3207;42.648;23.406;2022-08-14T11:59:42;5.90;;;5.47;;
6348;SDS011;3207;42.648;23.406;2022-08-14T12:02:09;5.97;;;5.47;;
6348;SDS011;3207;42.648;23.406;2022-08-14T12:04:48;6.13;;;5.53;;
6348;SDS011;3207;42.648;23.406;2022-08-14T12:07:15;5.80;;;5.30;;
6348;SDS011;3207;42.648;23.406;2022-08-14T12:09:42;5.55;;;5.05;;
6348;SDS011;3207;42.648;23.406;2022-08-14T12:12:13;6.13;;;5.63;;
6348;SDS011;3207;42.648;23.406;2022-08-14T12:14:47;6.18;;;5.65;;
6348;SDS011;3207;42.648;23.406;2022-08-14T12:17:16;5.47;;;5.07;;
6348;SDS011;3207;42.648;23.406;2022-08-14T12:19:44;6.13;;;5.63;;
6348;SDS011;3207;42.648;23.406;2022-08-14T12:22:13;5.57;;;5.18;;
6348;SDS011;3207;42.648;23.406;2022-08-14T12:24:40;6.05;;;5.40;;
6348;SDS011;3207;42.648;23.406;2022-08-14T12:27:08;6.65;;;6.13;;
6348;SDS011;3207;42.648;23.406;2022-08-14T12:29:37;5.45;;;5.05;;
6348;SDS011;3207;42.648;23.406;2022-08-14T12:32:06;5.95;;;5.45;;
6348;SDS011;3207;42.648;23.406;2022-08-14T12:34:33;5.97;;;4.82;;
6348;SDS011;3207;42.648;23.406;2022-08-14T12:37:02;5.40;;;4.90;;
6348;SDS011;3207;42.648;23.406;2022-08-14T12:39:31;6.00;;;5.50;;
6348;SDS011;3207;42.648;23.406;2022-08-14T12:41:59;11.32;;;10.30;;
6348;SDS011;3207;42.648;23.406;2022-08-14T12:44:30;6.57;;;6.07;;
6348;SDS011;3207;42.648;23.406;2022-08-14T12:47:02;8.20;;;6.70;;
6348;SDS011;3207;42.648;23.406;2022-08-14T12:49:30;6.45;;;5.95;;
6348;SDS011;3207;42.648;23.406;2022-08-14T12:51:58;8.07;;;7.43;;
6348;SDS011;3207;42.648;23.406;2022-08-14T12:54:31;11.07;;;10.07;;
6348;SDS011;3207;42.648;23.406;2022-08-14T12:57:04;5.50;;;5.10;;
6348;SDS011;3207;42.648;23.406;2022-08-14T12:59:33;5.50;;;5.00;;
6348;SDS011;3207;42.648;23.406;2022-08-14T13:02:00;5.60;;;5.10;;
6348;SDS011;3207;42.648;23.406;2022-08-14T13:04:28;6.90;;;4.90;;
6348;SDS011;3207;42.648;23.406;2022-08-14T13:06:58;5.22;;;4.82;;
6348;SDS011;3207;42.648;23.406;2022-08-14T13:09:34;4.82;;;4.47;;
6348;SDS011;3207;42.648;23.406;2022-08-14T13:12:02;5.30;;;4.90;;
6348;SDS011;3207;42.648;23.406;2022-08-14T13:14:31;5.00;;;4.60;;
6348;SDS011;3207;42.648;23.406;2022-08-14T13:16:59;5.10;;;4.70;;
6348;SDS011;3207;42.648;23.406;2022-08-14T13:19:27;5.72;;;5.22;;
6348;SDS011;3207;42.648;23.406;2022-08-14T13:21:54;4.93;;;4.53;;
6348;SDS011;3207;42.648;23.406;2022-08-14T13:24:22;4.45;;;4.15;;
6348;SDS011;3207;42.648;23.406;2022-08-14T13:26:52;4.57;;;4.28;;
6348;SDS011;3207;42.648;23.406;2022-08-14T13:29:21;4.82;;;4.40;;
6348;SDS011;3207;42.648;23.406;2022-08-14T13:31:49;4.78;;;4.47;;
6348;SDS011;3207;42.648;23.406;2022-08-14T13:34:18;5.45;;;4.95;;
6348;SDS011;3207;42.648;23.406;2022-08-14T13:36:46;5.38;;;4.88;;
6348;SDS011;3207;42.648;23.406;2022-08-14T13:39:13;5.38;;;4.88;;
6348;SDS011;3207;42.648;23.406;2022-08-14T13:41:41;4.90;;;4.60;;
6348;SDS011;3207;42.648;23.406;2022-08-14T13:44:09;4.38;;;4.07;;
6348;SDS011;3207;42.648;23.406;2022-08-14T13:46:37;5.22;;;4.85;;
6348;SDS011;3207;42.648;23.406;2022-08-14T13:49:04;4.93;;;4.53;;
6348;SDS011;3207;42.648;23.406;2022-08-14T13:51:35;5.03;;;4.63;;
6348;SDS011;3207;42.648;23.406;2022-08-14T13:54:04;4.65;;;4.32;;
6348;SDS011;3207;42.648;23.406;2022-08-14T13:56:31;4.60;;;4.30;;
6348;SDS011;3207;42.648;23.406;2022-08-14T13:59:02;4.88;;;4.47;;
6348;SDS011;3207;42.648;23.406;2022-08-14T14:01:30;4.43;;;4.13;;
6348;SDS011;3207;42.648;23.406;2022-08-14T14:03:59;5.13;;;4.72;;
6348;SDS011;3207;42.648;23.406;2022-08-14T14:06:25;5.20;;;4.70;;
6348;SDS011;3207;42.648;23.406;2022-08-14T14:08:54;5.30;;;4.90;;
6348;SDS011;3207;42.648;23.406;2022-08-14T14:11:22;6.25;;;4.72;;
6348;SDS011;3207;42.648;23.406;2022-08-14T14:13:49;5.18;;;4.68;;
6348;SDS011;3207;42.648;23.406;2022-08-14T14:16:17;5.35;;;4.85;;
6348;SDS011;3207;42.648;23.406;2022-08-14T14:18:47;5.18;;;4.68;;
6348;SDS011;3207;42.648;23.406;2022-08-14T14:21:20;5.68;;;5.13;;
6348;SDS011;3207;42.648;23.406;2022-08-14T14:23:48;5.70;;;5.18;;
6348;SDS011;3207;42.648;23.406;2022-08-14T14:26:16;4.57;;;4.18;;
6348;SDS011;3207;42.648;23.406;2022-08-14T14:28:47;5.55;;;5.05;;
6348;SDS011;3207;42.648;23.406;2022-08-14T14:31:15;5.22;;;4.82;;
6348;SDS011;3207;42.648;23.406;2022-08-14T14:33:47;5.18;;;4.78;;
6348;SDS011;3207;42.648;23.406;2022-08-14T14:36:16;5.55;;;5.00;;
6348;SDS011;3207;42.648;23.406;2022-08-14T14:38:44;5.40;;;4.93;;
6348;SDS011;3207;42.648;23.406;2022-08-14T14:41:17;4.85;;;4.45;;
6348;SDS011;3207;42.648;23.406;2022-08-14T14:43:46;4.70;;;4.30;;
6348;SDS011;3207;42.648;23.406;2022-08-14T14:46:14;4.82;;;4.35;;
6348;SDS011;3207;42.648;23.406;2022-08-14T14:48:43;5.00;;;4.60;;
6348;SDS011;3207;42.648;23.406;2022-08-14T14:51:11;7.40;;;4.38;;
6348;SDS011;3207;42.648;23.406;2022-08-14T14:53:39;4.68;;;4.28;;
6348;SDS011;3207;42.648;23.406;2022-08-14T14:56:06;4.65;;;4.30;;
6348;SDS011;3207;42.648;23.406;2022-08-14T14:58:34;4.32;;;4.03;;
6348;SDS011;3207;42.648;23.406;2022-08-14T15:01:03;5.78;;;4.55;;
6348;SDS011;3207;42.648;23.406;2022-08-14T15:03:32;5.22;;;4.72;;
6348;SDS011;3207;42.648;23.406;2022-08-14T15:05:59;4.68;;;4.30;;
6348;SDS011;3207;42.648;23.406;2022-08-14T15:08:27;5.22;;;4.75;;
6348;SDS011;3207;42.648;23.406;2022-08-14T15:10:54;4.85;;;4.45;;
6348;SDS011;3207;42.648;23.406;2022-08-14T15:13:21;4.88;;;4.47;;
6348;SDS011;3207;42.648;23.406;2022-08-14T15:15:47;4.20;;;3.90;;